Time;durP1;ratioP1;P1;durP2;ratioP2;P2;SDS_P1;SDS_P2;PMS_P1;PMS_P2;Temp;Humidity;BMP_temperature;BMP_pressure;BME280_temperature;BME280_humidity;BME280_pressure;Samples;Min_cycle;Max_cycle;Signal;HPM_P1;HPM_P2
2024/04/14 00:07:00;;;;;;;13.90;5.30;;;20.90;80.90;;;;;;5242604;27;20420;-72
2024/04/14 00:12:58;;;;;;;9.63;5.32;;;20.80;81.10;;;;;;5137429;27;20019;-72
2024/04/14 00:16:12;;;;;;;;;;;;;;;;;;;;;
2024/04/14 00:19:42;;;;;;;11.63;5.07;;;20.80;81.30;;;;;;5124062;27;20005;-71
2024/04/14 00:22:08;;;;;;;12.98;4.88;;;20.80;81.40;;;;;;5025889;28;20479;-71
2024/04/14 00:24:35;;;;;;;10.25;4.65;;;20.70;81.80;;;;;;5250911;27;19998;-71
2024/04/14 00:27:00;;;;;;;9.05;5.22;;;20.60;81.70;;;;;;5366967;26;20329;-72
2024/04/14 00:29:26;;;;;;;6.88;4.63;;;20.60;81.90;;;;;;5417461;26;20080;-72
2024/04/14 00:31:52;;;;;;;10.00;4.68;;;20.60;82.20;;;;;;5417345;26;19995;-72
2024/04/14 00:34:18;;;;;;;12.88;4.75;;;20.60;82.20;;;;;;5416968;26;19999;-72
2024/04/14 00:36:43;;;;;;;7.95;4.30;;;20.60;82.30;;;;;;5417060;26;20007;-73
2024/04/14 00:39:12;;;;;;;7.72;4.45;;;20.60;82.50;;;;;;5416628;26;19999;-72
2024/04/14 00:41:38;;;;;;;11.50;5.03;;;20.60;82.50;;;;;;5416190;26;20328;-72
2024/04/14 00:44:04;;;;;;;8.35;4.70;;;20.60;82.70;;;;;;5416924;26;20401;-72
2024/04/14 00:46:30;;;;;;;10.57;5.13;;;20.60;82.50;;;;;;5417098;26;20458;-73
2024/04/14 00:48:56;;;;;;;9.57;4.90;;;20.60;82.50;;;;;;5416713;26;20395;-72
2024/04/14 00:51:22;;;;;;;12.40;5.10;;;20.50;82.40;;;;;;5412764;26;20011;-72
2024/04/14 00:53:48;;;;;;;10.25;4.63;;;20.60;82.40;;;;;;5413829;26;20466;-72
2024/04/14 00:56:14;;;;;;;13.32;4.85;;;20.50;82.30;;;;;;5416151;26;20039;-72
2024/04/14 00:58:40;;;;;;;9.63;4.50;;;20.50;82.10;;;;;;5382922;26;19995;-73
2024/04/14 01:01:06;;;;;;;18.50;6.13;;;20.50;82.00;;;;;;5413434;26;20084;-71
2024/04/14 01:03:33;;;;;;;9.20;5.07;;;20.50;81.70;;;;;;5412024;26;20015;-73
2024/04/14 01:06:00;;;;;;;10.35;4.55;;;20.40;81.40;;;;;;5415927;26;20015;-71
2024/04/14 01:08:26;;;;;;;11.65;4.57;;;20.40;81.60;;;;;;5416801;26;20040;-72
2024/04/14 01:10:52;;;;;;;9.50;4.93;;;20.40;81.50;;;;;;5416866;26;20351;-71
2024/04/14 01:13:17;;;;;;;10.82;4.57;;;20.30;81.50;;;;;;5415696;26;19995;-72
2024/04/14 01:15:43;;;;;;;11.85;4.38;;;20.20;81.40;;;;;;5415689;26;20031;-71
2024/04/14 01:18:09;;;;;;;11.07;4.97;;;20.20;82.10;;;;;;5416501;26;20433;-71
2024/04/14 01:20:35;;;;;;;9.98;4.60;;;20.20;81.50;;;;;;5384861;26;20409;-72
2024/04/14 01:23:01;;;;;;;8.82;4.88;;;20.20;81.70;;;;;;5416428;26;19999;-72
2024/04/14 01:25:27;;;;;;;8.85;4.90;;;20.10;81.80;;;;;;5417012;26;19996;-71
2024/04/14 01:27:52;;;;;;;13.77;4.80;;;20.10;82.00;;;;;;5415802;26;20007;-72
2024/04/14 01:30:18;;;;;;;8.55;4.70;;;20.10;82.00;;;;;;5415435;26;20087;-72
2024/04/14 01:43:53;;;;;;;7.35;4.05;;;19.90;81.50;;;;;;5122543;27;20065;-71
2024/04/14 01:54:08;;;;;;;9.70;5.07;;;19.80;81.90;;;;;;4926429;29;20010;-71
2024/04/14 01:59:58;;;;;;;8.88;5.13;;;19.70;82.30;;;;;;4929226;29;20020;-72
2024/04/14 02:02:27;;;;;;;9.23;4.75;;;19.60;82.60;;;;;;5004243;28;20008;-72
2024/04/14 02:04:53;;;;;;;9.82;5.25;;;19.60;82.60;;;;;;5098274;27;21104;-72
2024/04/14 02:07:21;;;;;;;10.40;4.88;;;19.60;82.70;;;;;;5406738;26;19999;-71
2024/04/14 02:09:49;;;;;;;9.60;4.93;;;19.60;82.90;;;;;;5387658;26;20003;-72
2024/04/14 02:12:15;;;;;;;12.80;4.85;;;19.60;82.90;;;;;;5418540;26;20072;-73
2024/04/14 02:14:41;;;;;;;10.23;5.00;;;19.60;82.90;;;;;;5418820;26;20011;-72
2024/04/14 02:17:06;;;;;;;9.98;4.93;;;19.50;82.90;;;;;;5418392;26;19999;-72
2024/04/14 02:19:32;;;;;;;7.75;4.70;;;19.50;83.30;;;;;;5419019;26;19995;-72
2024/04/14 02:21:58;;;;;;;8.27;4.80;;;19.40;83.30;;;;;;5419055;26;20103;-73
2024/04/14 02:24:24;;;;;;;8.63;4.70;;;19.40;83.50;;;;;;5418749;26;20000;-72
2024/04/14 02:26:49;;;;;;;9.15;4.88;;;19.40;83.50;;;;;;5418754;26;20006;-71
2024/04/14 02:29:15;;;;;;;8.70;5.20;;;19.40;83.70;;;;;;5419071;26;20007;-72
2024/04/14 02:31:41;;;;;;;10.52;4.22;;;19.40;83.70;;;;;;5419223;26;20010;-71
2024/04/14 02:34:07;;;;;;;10.18;4.70;;;19.40;83.70;;;;;;5418699;26;20003;-72
2024/04/14 02:36:32;;;;;;;15.80;5.38;;;19.30;83.70;;;;;;5418829;26;20029;-72
2024/04/14 02:38:58;;;;;;;8.20;4.93;;;19.40;83.80;;;;;;5418581;26;20010;-73
2024/04/14 02:41:24;;;;;;;13.63;5.10;;;19.40;83.70;;;;;;5418537;26;19999;-76
2024/04/14 02:43:50;;;;;;;12.43;5.50;;;19.30;83.50;;;;;;5418787;26;19999;-77
2024/04/14 02:46:15;;;;;;;13.65;5.57;;;19.30;83.50;;;;;;5418907;26;20003;-75
2024/04/14 02:48:48;;;;;;;15.20;5.90;;;19.30;83.60;;;;;;5417954;26;19995;-77
2024/04/14 02:51:13;;;;;;;;;;;19.30;83.80;;;;;;5418389;26;20402;-76
2024/04/14 02:53:39;;;;;;;9.82;5.47;;;19.30;83.70;;;;;;5418815;26;19925;-76
2024/04/14 02:56:05;;;;;;;20.60;5.35;;;19.30;83.70;;;;;;5418716;26;20328;-75
2024/04/14 02:58:31;;;;;;;17.05;5.05;;;19.30;83.70;;;;;;5418231;26;20000;-75
2024/04/14 03:01:01;;;;;;;15.20;5.85;;;19.30;83.70;;;;;;5418424;26;19996;-76
2024/04/14 03:03:27;;;;;;;11.02;5.30;;;19.20;83.70;;;;;;5419107;26;20003;-72
2024/04/14 03:06:14;;;;;;;11.32;4.53;;;19.20;83.80;;;;;;5418170;26;20469;-72
2024/04/14 03:08:41;;;;;;;15.65;4.97;;;19.20;83.80;;;;;;5419137;26;20035;-72
2024/04/14 03:11:08;;;;;;;11.38;5.18;;;19.20;83.90;;;;;;5418710;26;20018;-72
2024/04/14 03:13:34;;;;;;;12.73;5.10;;;19.20;84.00;;;;;;5418745;26;20018;-72
2024/04/14 03:23:57;;;;;;;8.82;4.85;;;18.90;85.00;;;;;;5143356;27;20525;-72
2024/04/14 03:36:18;;;;;;;10.70;4.78;;;18.70;85.50;;;;;;5147263;27;20394;-71
2024/04/14 03:42:07;;;;;;;;;;;18.80;85.90;;;;;;5143996;27;20028;-72
2024/04/14 03:44:33;;;;;;;10.45;5.68;;;18.70;85.80;;;;;;5411196;26;19949;-71
2024/04/14 03:46:59;;;;;;;11.23;4.63;;;18.70;85.70;;;;;;5375036;26;20324;-72
2024/04/14 03:49:25;;;;;;;10.27;5.30;;;18.80;86.00;;;;;;5393652;26;20317;-72
2024/04/14 03:51:51;;;;;;;10.43;5.25;;;18.70;86.10;;;;;;5395266;26;20072;-72
2024/04/14 03:54:17;;;;;;;10.02;4.60;;;18.70;85.90;;;;;;5404766;26;19999;-71
2024/04/14 03:56:43;;;;;;;8.48;4.85;;;18.70;85.60;;;;;;5373345;26;20029;-71
2024/04/14 03:59:09;;;;;;;13.93;5.10;;;18.70;85.50;;;;;;5400604;26;19996;-72
2024/04/14 04:01:35;;;;;;;11.70;4.82;;;18.70;85.50;;;;;;5406471;26;19996;-71
2024/04/14 04:04:00;;;;;;;12.10;5.53;;;18.70;85.40;;;;;;5391325;26;20006;-71
2024/04/14 04:06:26;;;;;;;14.50;5.57;;;18.70;85.50;;;;;;5382247;26;19996;-72
2024/04/14 04:08:52;;;;;;;10.90;5.60;;;18.60;85.60;;;;;;5381602;26;20008;-72
2024/04/14 04:11:18;;;;;;;7.30;4.65;;;18.60;85.80;;;;;;5381525;26;20448;-72
2024/04/14 04:13:44;;;;;;;10.63;5.30;;;18.60;85.90;;;;;;5381965;26;20073;-72
2024/04/14 04:16:10;;;;;;;12.88;5.32;;;18.60;86.10;;;;;;5382044;26;20011;-73
2024/04/14 04:18:36;;;;;;;15.32;4.82;;;18.60;86.10;;;;;;5380790;26;20458;-72
2024/04/14 04:21:05;;;;;;;11.02;4.32;;;18.60;86.00;;;;;;5381976;26;20000;-72
2024/04/14 04:23:31;;;;;;;9.77;4.68;;;18.60;85.90;;;;;;5381553;26;19997;-72
2024/04/14 04:25:59;;;;;;;10.43;4.78;;;18.60;86.20;;;;;;5381202;26;20008;-72
2024/04/14 04:28:27;;;;;;;12.40;4.80;;;18.50;86.30;;;;;;5381241;26;20440;-72
2024/04/14 04:30:53;;;;;;;9.50;5.00;;;18.50;86.20;;;;;;5380310;26;20073;-72
2024/04/14 04:33:19;;;;;;;8.23;5.30;;;18.50;86.10;;;;;;5380544;26;19992;-71
2024/04/14 04:36:13;;;;;;;8.30;4.82;;;18.40;85.90;;;;;;5379716;26;20000;-71
2024/04/14 04:38:41;;;;;;;7.60;4.50;;;18.40;85.80;;;;;;5376232;26;20004;-72
2024/04/14 04:41:08;;;;;;;8.23;4.80;;;18.40;86.00;;;;;;5380288;26;20473;-71
2024/04/14 04:43:38;;;;;;;12.27;4.63;;;18.40;86.00;;;;;;5378986;26;20007;-71
2024/04/14 04:46:04;;;;;;;11.93;4.55;;;18.30;86.20;;;;;;5379357;26;20011;-72
2024/04/14 04:48:30;;;;;;;10.07;5.03;;;18.30;86.20;;;;;;5377772;26;20000;-72
2024/04/14 04:50:56;;;;;;;8.38;4.50;;;18.30;86.30;;;;;;5378017;26;20007;-72
2024/04/14 04:53:22;;;;;;;7.45;4.80;;;18.30;86.50;;;;;;5377415;26;19996;-71
2024/04/14 04:55:51;;;;;;;13.23;4.85;;;18.30;86.50;;;;;;5380287;26;20004;-71
2024/04/14 04:59:15;;;;;;;9.90;4.93;;;18.30;86.50;;;;;;5379938;26;20000;-72
2024/04/14 05:02:13;;;;;;;11.38;4.97;;;18.30;86.70;;;;;;5274109;27;20442;-71
2024/04/14 05:05:03;;;;;;;7.40;4.80;;;18.10;86.80;;;;;;5274215;27;20009;-71
2024/04/14 05:11:24;;;;;;;7.57;4.95;;;17.90;88.40;;;;;;5273080;27;20080;-71
2024/04/14 05:14:22;;;;;;;10.73;5.10;;;17.90;88.90;;;;;;5203049;27;20008;-71
2024/04/14 05:18:07;;;;;;;9.75;5.07;;;17.90;88.90;;;;;;5273772;27;20355;-72
2024/04/14 05:23:52;;;;;;;11.75;5.53;;;18.00;89.10;;;;;;5062067;28;20470;-72
2024/04/14 05:26:18;;;;;;;13.75;5.40;;;18.00;89.00;;;;;;5243152;27;20358;-72
2024/04/14 05:28:44;;;;;;;9.77;4.85;;;18.00;89.20;;;;;;5360530;26;20007;-72
2024/04/14 05:31:10;;;;;;;10.30;4.85;;;18.00;89.40;;;;;;5416584;26;19995;-72
2024/04/14 05:33:36;;;;;;;12.88;6.05;;;18.00;89.30;;;;;;5415535;26;20006;-72
2024/04/14 05:36:02;;;;;;;15.02;5.28;;;18.10;89.40;;;;;;5416098;26;19991;-72
2024/04/14 05:38:28;;;;;;;12.73;4.90;;;18.10;89.50;;;;;;5415854;26;19999;-71
2024/04/14 05:40:53;;;;;;;8.52;5.03;;;18.10;89.70;;;;;;5415129;26;19999;-72
2024/04/14 05:43:19;;;;;;;11.10;5.15;;;18.10;89.80;;;;;;5415318;26;19995;-72
2024/04/14 05:45:45;;;;;;;14.23;5.03;;;18.20;90.00;;;;;;5416010;26;20026;-72
2024/04/14 05:48:11;;;;;;;12.05;5.45;;;18.20;90.10;;;;;;5414267;26;20786;-72
2024/04/14 05:50:36;;;;;;;15.52;5.57;;;18.20;90.20;;;;;;5413808;26;20010;-71
2024/04/14 05:53:02;;;;;;;9.93;5.22;;;18.20;90.30;;;;;;5413542;26;20011;-71
2024/04/14 05:55:28;;;;;;;7.95;4.95;;;18.20;90.70;;;;;;5413662;26;20046;-71
2024/04/14 05:57:53;;;;;;;9.77;5.57;;;18.30;90.70;;;;;;5413967;26;20009;-72
2024/04/14 06:00:19;;;;;;;8.27;5.47;;;18.30;90.80;;;;;;5431818;21;20000;-71
2024/04/14 06:02:45;;;;;;;10.57;5.13;;;18.30;90.90;;;;;;5448762;26;20003;-71
2024/04/14 06:05:11;;;;;;;7.60;4.90;;;18.40;90.90;;;;;;5450717;26;20007;-71
2024/04/14 06:07:37;;;;;;;11.70;6.40;;;18.40;91.00;;;;;;5452395;26;20087;-72
2024/04/14 06:10:04;;;;;;;10.80;5.90;;;18.40;91.00;;;;;;5438264;26;20454;-71
2024/04/14 06:12:33;;;;;;;9.63;5.30;;;18.50;91.20;;;;;;5451983;26;20330;-71
2024/04/14 06:39:17;;;;;;;10.80;5.05;;;18.90;92.00;;;;;;5377482;26;20027;-71
2024/04/14 06:41:43;;;;;;;18.17;5.20;;;18.90;92.30;;;;;;5380509;26;20360;-71
2024/04/14 06:44:09;;;;;;;13.55;4.70;;;19.00;91.90;;;;;;5431953;26;20335;-71
2024/04/14 06:46:35;;;;;;;9.60;4.85;;;19.10;92.20;;;;;;5455412;26;20075;-71
2024/04/14 06:49:02;;;;;;;12.82;5.43;;;19.10;91.90;;;;;;5455327;26;20011;-71
2024/04/14 06:51:27;;;;;;;12.93;4.80;;;19.10;92.00;;;;;;5455138;26;20011;-71
2024/04/14 06:53:56;;;;;;;11.45;5.40;;;19.20;92.10;;;;;;5455115;26;20009;-71
2024/04/14 06:56:22;;;;;;;13.05;4.93;;;19.20;92.20;;;;;;5454950;26;19991;-71
2024/04/14 06:58:48;;;;;;;8.57;5.05;;;19.30;92.40;;;;;;5455238;26;20033;-71
2024/04/14 07:01:14;;;;;;;8.80;5.35;;;19.30;92.30;;;;;;5455102;26;19998;-71
2024/04/14 07:03:40;;;;;;;13.30;5.10;;;19.30;92.40;;;;;;5453240;26;19991;-71
2024/04/14 07:06:05;;;;;;;13.55;5.57;;;19.40;92.40;;;;;;5454657;26;20014;-71
2024/04/14 07:08:31;;;;;;;11.57;5.78;;;19.40;92.40;;;;;;5455001;26;19999;-71
2024/04/14 07:10:57;;;;;;;14.20;4.85;;;19.50;92.60;;;;;;5454981;26;20010;-71
2024/04/14 07:13:23;;;;;;;7.07;4.80;;;19.50;92.60;;;;;;5454275;26;20071;-71
2024/04/14 07:15:48;;;;;;;12.48;5.35;;;19.60;92.60;;;;;;5454513;26;19995;-71
2024/04/14 07:18:16;;;;;;;8.85;4.95;;;19.60;92.70;;;;;;5454872;26;20003;-71
2024/04/14 07:20:42;;;;;;;9.35;5.82;;;19.70;92.70;;;;;;5455104;26;20005;-71
2024/04/14 07:23:08;;;;;;;12.18;5.38;;;19.70;92.70;;;;;;5454846;26;19995;-71
2024/04/14 07:25:33;;;;;;;17.05;5.50;;;19.70;92.60;;;;;;5454415;26;19991;-71
2024/04/14 07:27:59;;;;;;;10.63;5.15;;;19.80;92.60;;;;;;5454338;26;20011;-71
2024/04/14 07:30:25;;;;;;;12.13;5.63;;;19.80;92.60;;;;;;5454452;26;19998;-71
2024/04/14 07:32:51;;;;;;;12.35;5.53;;;19.90;92.70;;;;;;5453965;26;20320;-71
2024/04/14 07:35:16;;;;;;;7.78;5.20;;;19.90;92.70;;;;;;5454409;26;20005;-71
2024/04/14 07:37:42;;;;;;;8.85;4.97;;;20.00;92.80;;;;;;5454860;26;20011;-71
2024/04/14 07:40:09;;;;;;;11.05;5.18;;;20.00;92.70;;;;;;5454833;26;19995;-71
2024/04/14 07:42:34;;;;;;;9.27;4.82;;;20.00;92.80;;;;;;5455092;26;20014;-71
2024/04/14 07:45:01;;;;;;;10.10;5.47;;;20.10;92.70;;;;;;5455115;26;20423;-71
2024/04/14 07:47:27;;;;;;;9.80;5.13;;;20.10;92.60;;;;;;5454523;26;20006;-71
2024/04/14 07:49:53;;;;;;;9.35;4.85;;;20.20;92.70;;;;;;5455028;26;19995;-71
2024/04/14 07:52:20;;;;;;;7.90;5.10;;;20.20;92.70;;;;;;5455053;26;20002;-71
2024/04/14 07:55:49;;;;;;;11.80;5.25;;;20.30;92.70;;;;;;5454720;26;20023;-71
2024/04/14 07:58:37;;;;;;;6.90;4.80;;;20.30;92.70;;;;;;5310536;27;20668;-71
2024/04/14 08:12:13;;;;;;;11.35;4.60;;;20.60;92.40;;;;;;5112022;27;20013;-71
2024/04/14 08:18:26;;;;;;;15.57;4.65;;;20.70;92.30;;;;;;5112222;27;20558;-71
2024/04/14 08:20:57;;;;;;;9.10;4.65;;;20.80;92.00;;;;;;5171624;27;20373;-71
2024/04/14 08:23:23;;;;;;;12.52;4.70;;;20.90;91.60;;;;;;5270159;27;20396;-71
2024/04/14 08:25:49;;;;;;;9.43;4.30;;;20.90;91.60;;;;;;5388566;26;20351;-71
2024/04/14 08:28:15;;;;;;;9.52;4.72;;;20.90;91.40;;;;;;5454117;26;20072;-72
2024/04/14 08:30:40;;;;;;;15.05;4.70;;;21.00;91.50;;;;;;5453914;26;20458;-71
2024/04/14 08:33:06;;;;;;;8.88;4.55;;;21.00;91.40;;;;;;5451603;26;19995;-71
2024/04/14 08:35:32;;;;;;;9.07;4.50;;;21.10;91.30;;;;;;5449866;26;20007;-71
2024/04/14 08:37:57;;;;;;;8.52;4.15;;;21.10;90.80;;;;;;5450790;26;20478;-71
2024/04/14 08:40:23;;;;;;;7.80;4.00;;;21.20;90.30;;;;;;5453907;26;19998;-71
2024/04/14 08:42:49;;;;;;;10.00;3.70;;;21.20;90.30;;;;;;5453767;26;19995;-72
2024/04/14 08:45:16;;;;;;;7.50;3.92;;;21.30;90.40;;;;;;5453965;26;20022;-71
2024/04/14 08:47:44;;;;;;;7.82;3.75;;;21.40;90.40;;;;;;5453838;26;20384;-71
2024/04/14 08:50:12;;;;;;;11.25;3.90;;;21.30;90.30;;;;;;5453378;26;20006;-71
2024/04/14 08:52:41;;;;;;;7.03;4.10;;;21.40;90.30;;;;;;5453597;26;20330;-72
2024/04/14 08:55:09;;;;;;;7.70;4.00;;;21.50;90.10;;;;;;5453722;26;19994;-71
2024/04/14 08:57:38;;;;;;;10.90;4.40;;;21.50;90.00;;;;;;5452462;26;20385;-72
2024/04/14 09:00:06;;;;;;;10.10;4.70;;;21.60;90.20;;;;;;5449498;26;20664;-71
2024/04/14 09:02:32;;;;;;;13.20;4.50;;;21.60;90.90;;;;;;5447287;26;20003;-72
2024/04/14 09:04:58;;;;;;;11.05;4.78;;;21.70;90.30;;;;;;5450781;26;20017;-71
2024/04/14 09:07:24;;;;;;;11.07;4.45;;;21.80;90.70;;;;;;5453108;26;20003;-71
2024/04/14 09:09:51;;;;;;;8.07;4.05;;;21.90;90.90;;;;;;5453315;26;20003;-72
2024/04/14 09:12:17;;;;;;;12.02;4.63;;;21.90;90.60;;;;;;5453053;26;19998;-71
2024/04/14 09:14:49;;;;;;;10.07;4.05;;;22.00;90.60;;;;;;5452632;26;19998;-71
2024/04/14 09:17:14;;;;;;;10.98;4.30;;;22.00;91.10;;;;;;5452848;26;20013;-72
2024/04/14 09:19:44;;;;;;;11.75;4.25;;;22.10;91.10;;;;;;5453227;26;19999;-71
2024/04/14 09:22:10;;;;;;;5.75;3.95;;;22.20;90.80;;;;;;5453088;26;19999;-72
2024/04/14 09:24:36;;;;;;;15.70;3.97;;;22.20;90.60;;;;;;5453641;26;20014;-71
2024/04/14 09:27:03;;;;;;;13.73;4.22;;;22.20;90.60;;;;;;5453621;26;20034;-71
2024/04/14 09:29:29;;;;;;;11.82;4.57;;;22.30;89.80;;;;;;5453079;26;20427;-71
2024/04/14 09:42:28;;;;;;;10.52;4.45;;;22.50;89.00;;;;;;5342862;26;20351;-72
2024/04/14 09:49:46;;;;;;;;;;;;;;;;;;;;;
2024/04/14 09:56:36;;;;;;;10.68;4.10;;;22.70;86.60;;;;;;5207763;27;19924;-71
2024/04/14 09:59:08;;;;;;;11.00;4.22;;;22.70;85.20;;;;;;5252005;26;20010;-71
2024/04/14 10:01:38;;;;;;;8.77;4.03;;;22.80;83.70;;;;;;5451794;26;20335;-71
2024/04/14 10:04:06;;;;;;;14.43;4.32;;;22.80;83.40;;;;;;5452382;26;19998;-71
2024/04/14 10:06:35;;;;;;;13.20;5.57;;;22.80;83.60;;;;;;5452122;26;19999;-71
2024/04/14 10:09:01;;;;;;;21.27;6.82;;;22.80;82.20;;;;;;5452542;26;20339;-71
2024/04/14 10:11:27;;;;;;;9.02;4.85;;;22.90;81.70;;;;;;5452224;26;20007;-71
2024/04/14 10:13:56;;;;;;;8.95;5.43;;;22.90;82.20;;;;;;5451989;26;20013;-72
2024/04/14 10:16:24;;;;;;;13.10;5.05;;;22.90;82.50;;;;;;5454630;26;19998;-72
2024/04/14 10:18:50;;;;;;;9.27;4.85;;;23.00;81.70;;;;;;5455645;26;20335;-72
2024/04/14 10:21:18;;;;;;;10.52;5.28;;;23.00;82.50;;;;;;5455299;26;20006;-71
2024/04/14 10:23:56;;;;;;;7.28;4.78;;;23.00;80.90;;;;;;5455664;26;20319;-71
2024/04/14 10:26:22;;;;;;;16.85;5.00;;;23.10;80.90;;;;;;5455522;26;19995;-72
2024/04/14 10:28:55;;;;;;;13.73;5.22;;;23.10;80.30;;;;;;5454954;26;20010;-71
2024/04/14 10:31:35;;;;;;;11.00;5.90;;;23.10;79.80;;;;;;5455444;26;20011;-71
2024/04/14 10:34:05;;;;;;;12.82;6.00;;;23.10;79.00;;;;;;5455754;26;20003;-72
2024/04/14 10:36:32;;;;;;;11.80;4.90;;;23.20;79.00;;;;;;5455173;26;19995;-72
2024/04/14 10:38:58;;;;;;;11.05;4.88;;;23.30;78.90;;;;;;5455190;26;20002;-71
2024/04/14 10:41:24;;;;;;;12.32;5.10;;;23.30;78.90;;;;;;5454889;26;20003;-72
2024/04/14 10:43:50;;;;;;;11.07;5.10;;;23.30;78.40;;;;;;5455516;26;20003;-72
2024/04/14 10:46:15;;;;;;;8.38;5.20;;;23.30;77.60;;;;;;5455432;26;20003;-71
2024/04/14 10:48:44;;;;;;;14.75;4.60;;;23.30;78.00;;;;;;5455412;26;20014;-72
2024/04/14 10:51:10;;;;;;;10.45;5.88;;;23.40;78.00;;;;;;5455110;26;20003;-72
2024/04/14 10:53:36;;;;;;;11.98;5.55;;;23.40;78.20;;;;;;5453203;26;19999;-72
2024/04/14 10:56:02;;;;;;;10.95;6.22;;;23.50;78.20;;;;;;5455241;26;20043;-72
2024/04/14 10:58:31;;;;;;;10.98;6.10;;;23.50;77.60;;;;;;5453370;26;20003;-72
2024/04/14 11:00:57;;;;;;;12.48;6.90;;;23.50;78.40;;;;;;5452069;26;20084;-71
2024/04/14 11:03:23;;;;;;;11.48;5.43;;;23.60;77.70;;;;;;5453418;26;20343;-71
2024/04/14 11:06:25;;;;;;;18.60;9.43;;;23.60;77.30;;;;;;5455194;26;19999;-71
2024/04/14 11:09:14;;;;;;;;;;;;;;;;;;;;;
2024/04/14 11:12:11;;;;;;;13.45;7.20;;;23.70;76.40;;;;;;5335265;26;19999;-72
2024/04/14 11:15:01;;;;;;;13.00;7.35;;;23.70;76.30;;;;;;5455442;26;20003;-71
2024/04/14 11:17:43;;;;;;;;;;;;;;;;;;;;;
2024/04/14 11:35:23;;;;;;;13.38;7.50;;;23.90;75.40;;;;;;5177019;27;20082;-72
2024/04/14 11:37:52;;;;;;;11.95;6.50;;;24.00;75.60;;;;;;5238738;26;20012;-72
2024/04/14 11:40:21;;;;;;;10.95;4.85;;;24.00;74.70;;;;;;5453374;26;19999;-72
2024/04/14 11:42:47;;;;;;;10.95;6.20;;;24.10;72.90;;;;;;5454649;26;20002;-72
2024/04/14 11:45:13;;;;;;;23.20;12.38;;;24.10;72.80;;;;;;5454100;26;20079;-72
2024/04/14 11:47:39;;;;;;;14.57;6.72;;;24.10;73.40;;;;;;5454324;26;20003;-72
2024/04/14 11:50:07;;;;;;;29.92;14.20;;;24.10;74.10;;;;;;5454413;26;19994;-71
2024/04/14 11:52:32;;;;;;;18.77;8.98;;;24.20;74.60;;;;;;5453919;26;20045;-71
2024/04/14 11:54:59;;;;;;;11.38;5.35;;;24.20;74.60;;;;;;5454266;26;20062;-72
2024/04/14 11:57:25;;;;;;;17.10;9.60;;;24.20;74.20;;;;;;5454136;26;20400;-72
2024/04/14 11:59:51;;;;;;;8.82;6.03;;;24.30;74.90;;;;;;5454291;26;19995;-72
2024/04/14 12:02:18;;;;;;;10.90;4.38;;;24.30;74.20;;;;;;5453966;26;20071;-72
2024/04/14 12:04:44;;;;;;;8.70;3.83;;;24.30;74.20;;;;;;5454010;26;19995;-72
2024/04/14 12:07:10;;;;;;;12.02;4.85;;;24.40;74.50;;;;;;5454208;26;20018;-72
2024/04/14 12:09:35;;;;;;;10.55;4.80;;;24.50;73.50;;;;;;5454118;26;19995;-72
2024/04/14 12:12:02;;;;;;;10.15;4.85;;;24.50;73.20;;;;;;5453947;26;20009;-72
2024/04/14 12:14:27;;;;;;;8.05;4.45;;;24.50;73.70;;;;;;5453738;26;20454;-72
2024/04/14 12:16:56;;;;;;;8.73;4.65;;;24.50;73.50;;;;;;5454060;26;20010;-72
2024/04/14 12:19:22;;;;;;;8.85;4.70;;;24.60;72.90;;;;;;5453420;26;19995;-72
2024/04/14 12:21:48;;;;;;;12.45;4.55;;;24.60;73.30;;;;;;5453614;26;20013;-71
2024/04/14 12:24:14;;;;;;;9.10;3.90;;;24.60;72.70;;;;;;5453665;26;19999;-72
2024/04/14 12:26:39;;;;;;;11.98;4.55;;;24.60;71.40;;;;;;5453637;26;19998;-72
2024/04/14 12:29:05;;;;;;;8.18;4.60;;;24.60;71.30;;;;;;5453404;26;20003;-71
2024/04/14 12:31:31;;;;;;;10.75;4.50;;;24.60;71.50;;;;;;5453961;26;19998;-72
2024/04/14 12:33:56;;;;;;;9.57;5.00;;;24.70;71.80;;;;;;5453703;26;19999;-72
2024/04/14 12:36:22;;;;;;;7.63;4.90;;;24.70;72.10;;;;;;5453958;26;20079;-72
2024/04/14 12:38:48;;;;;;;8.60;5.43;;;24.70;72.50;;;;;;5453003;26;19999;-72
2024/04/14 12:41:15;;;;;;;8.82;5.07;;;24.70;71.90;;;;;;5454368;26;20009;-71
2024/04/14 12:43:41;;;;;;;7.95;4.50;;;24.70;72.10;;;;;;5454013;26;20006;-72
2024/04/14 12:46:07;;;;;;;12.20;5.60;;;24.70;73.30;;;;;;5454299;26;19995;-72
2024/04/14 13:10:32;;;;;;;8.82;4.82;;;24.90;73.60;;;;;;5053293;28;20002;-72
2024/04/14 13:13:08;;;;;;;8.73;4.97;;;25.00;73.30;;;;;;5147924;27;20620;-72
2024/04/14 13:15:35;;;;;;;12.90;5.03;;;25.00;74.40;;;;;;5132043;27;20020;-72
2024/04/14 13:18:01;;;;;;;9.52;4.82;;;25.00;74.10;;;;;;5236681;27;20340;-71
2024/04/14 13:20:27;;;;;;;8.55;4.90;;;25.00;73.90;;;;;;5295635;26;19997;-71
2024/04/14 13:22:53;;;;;;;11.88;5.22;;;25.10;74.10;;;;;;5346847;26;20008;-72
2024/04/14 13:25:19;;;;;;;12.18;4.93;;;25.10;74.50;;;;;;5346383;26;20020;-71
2024/04/14 13:27:48;;;;;;;7.85;4.95;;;25.10;73.10;;;;;;5346572;26;19993;-72
2024/04/14 13:30:14;;;;;;;7.10;5.60;;;25.10;73.10;;;;;;5344752;26;20028;-72
2024/04/14 13:32:39;;;;;;;15.00;5.30;;;25.10;73.40;;;;;;5346314;26;20043;-71
2024/04/14 13:35:05;;;;;;;13.15;5.95;;;25.20;74.20;;;;;;5346192;26;20001;-72
2024/04/14 13:37:31;;;;;;;15.68;5.15;;;25.20;73.60;;;;;;5346339;26;20001;-72
2024/04/14 13:39:57;;;;;;;12.18;5.10;;;25.30;73.10;;;;;;5345871;26;20001;-72
2024/04/14 13:42:23;;;;;;;12.07;4.70;;;25.30;71.90;;;;;;5344083;26;20005;-72
2024/04/14 13:44:48;;;;;;;11.27;4.65;;;25.30;72.80;;;;;;5346135;26;20012;-71
2024/04/14 13:47:14;;;;;;;10.25;4.32;;;25.30;72.90;;;;;;5346567;26;20005;-72
2024/04/14 13:49:40;;;;;;;8.23;5.13;;;25.20;72.30;;;;;;5347291;26;20012;-72
2024/04/14 13:52:06;;;;;;;9.63;4.65;;;25.30;73.00;;;;;;5349675;26;20005;-71
2024/04/14 13:54:32;;;;;;;10.43;4.13;;;25.30;72.70;;;;;;5348941;26;20033;-72
2024/04/14 13:56:58;;;;;;;15.30;4.70;;;25.30;73.00;;;;;;5347088;26;20005;-72
2024/04/14 13:59:25;;;;;;;14.65;4.70;;;25.30;73.00;;;;;;5347723;26;20007;-72
2024/04/14 14:01:51;;;;;;;11.23;4.32;;;25.30;73.10;;;;;;5349525;26;20340;-72
2024/04/14 14:04:20;;;;;;;11.23;3.78;;;25.30;73.00;;;;;;5415934;26;19999;-72
2024/04/14 14:06:45;;;;;;;9.70;4.38;;;25.30;73.20;;;;;;5419745;26;20004;-73
2024/04/14 14:09:11;;;;;;;13.18;4.13;;;25.30;72.70;;;;;;5419731;26;20000;-72
2024/04/14 14:11:38;;;;;;;12.98;4.25;;;25.30;72.40;;;;;;5418033;26;20011;-72
2024/04/14 14:14:05;;;;;;;7.72;4.20;;;25.30;71.20;;;;;;5419725;26;20003;-71
2024/04/14 14:16:31;;;;;;;12.73;4.38;;;25.30;71.30;;;;;;5420244;26;20003;-72
2024/04/14 14:18:56;;;;;;;9.27;3.92;;;25.30;71.40;;;;;;5419964;26;20509;-71
2024/04/14 14:21:22;;;;;;;11.13;3.83;;;25.30;71.00;;;;;;5420210;26;19999;-72
2024/04/14 14:23:48;;;;;;;11.40;4.70;;;25.30;71.10;;;;;;5420089;26;20072;-71
2024/04/14 14:37:53;;;;;;;12.02;3.72;;;25.30;71.50;;;;;;5113739;28;20085;-72
2024/04/14 14:51:57;;;;;;;11.63;3.63;;;25.30;71.80;;;;;;5113449;28;20094;-71
2024/04/14 14:54:04;;;;;;;9.73;3.65;;;25.30;70.80;;;;;;5244326;26;20015;-72
2024/04/14 14:56:30;;;;;;;8.32;3.90;;;25.30;70.30;;;;;;5401935;26;19995;-72
2024/04/14 14:58:56;;;;;;;12.45;4.43;;;25.30;70.00;;;;;;5419255;26;20010;-71
2024/04/14 15:01:22;;;;;;;10.48;4.10;;;25.30;70.20;;;;;;5417692;26;20076;-72
2024/04/14 15:03:51;;;;;;;11.68;3.50;;;25.30;69.70;;;;;;5418825;26;20011;-72
2024/04/14 15:06:17;;;;;;;13.30;3.80;;;25.30;70.60;;;;;;5418723;26;20044;-72
2024/04/14 15:08:43;;;;;;;9.82;3.85;;;25.30;70.30;;;;;;5418962;26;20310;-72
2024/04/14 15:11:19;;;;;;;6.03;3.50;;;25.30;68.70;;;;;;5419438;26;20073;-72
2024/04/14 15:13:49;;;;;;;8.70;3.65;;;25.30;68.10;;;;;;5418899;26;20324;-72
2024/04/14 15:16:15;;;;;;;7.75;3.55;;;25.30;68.20;;;;;;5419054;26;20039;-72
2024/04/14 15:18:42;;;;;;;9.40;3.83;;;25.30;68.90;;;;;;5418920;26;20459;-72
2024/04/14 15:21:07;;;;;;;8.20;3.40;;;25.40;68.70;;;;;;5419094;26;20343;-71
2024/04/14 15:23:33;;;;;;;10.27;3.05;;;25.30;68.50;;;;;;5418464;26;20011;-72
2024/04/14 15:25:59;;;;;;;11.38;3.70;;;25.30;68.80;;;;;;5418938;26;20015;-71
2024/04/14 15:28:25;;;;;;;8.93;3.83;;;25.30;67.60;;;;;;5416561;26;20003;-72
2024/04/14 15:30:51;;;;;;;8.60;3.58;;;25.30;68.30;;;;;;5415089;26;20003;-72
2024/04/14 15:33:17;;;;;;;8.93;3.10;;;25.30;68.50;;;;;;5416286;26;20440;-72
2024/04/14 15:35:43;;;;;;;8.63;3.35;;;25.30;68.10;;;;;;5418789;26;20015;-72
2024/04/14 15:38:09;;;;;;;12.70;4.13;;;25.30;68.10;;;;;;5418447;26;20006;-72
2024/04/14 15:40:37;;;;;;;9.55;3.70;;;25.30;67.60;;;;;;5418687;26;19999;-72
2024/04/14 15:43:05;;;;;;;6.13;3.38;;;25.30;67.40;;;;;;5418984;26;20459;-72
2024/04/14 15:45:31;;;;;;;9.68;4.07;;;25.30;67.40;;;;;;5418285;26;20004;-71
2024/04/14 15:47:59;;;;;;;11.98;3.92;;;25.30;67.60;;;;;;5418588;26;20044;-72
2024/04/14 15:50:25;;;;;;;7.18;4.35;;;25.20;68.10;;;;;;5418554;26;20000;-71